Time;durP1;ratioP1;P1;durP2;ratioP2;P2;SDS_P1;SDS_P2;PMS_P1;PMS_P2;Temp;Humidity;BMP_temperature;BMP_pressure;BME280_temperature;BME280_humidity;BME280_pressure;Samples;Min_cycle;Max_cycle;Signal;HPM_P1;HPM_P2
2021/10/12 00:00:53;;;;;;;8.50;1.83;;;14.30;99.90;;;;;;5032253;28;20610;-74
2021/10/12 00:03:19;;;;;;;6.37;2.47;;;14.20;99.90;;;;;;5032734;28;20197;-74
2021/10/12 00:05:46;;;;;;;7.70;1.60;;;14.20;99.90;;;;;;5031345;28;20580;-74
2021/10/12 00:08:12;;;;;;;5.33;1.70;;;14.20;99.90;;;;;;5032664;28;20201;-74
2021/10/12 00:10:39;;;;;;;7.85;2.08;;;14.20;99.90;;;;;;5032099;28;20645;-74
2021/10/12 00:13:04;;;;;;;5.70;2.10;;;14.20;99.90;;;;;;5032565;28;20220;-74
2021/10/12 00:15:32;;;;;;;5.78;1.70;;;14.20;99.90;;;;;;5032400;28;20170;-74
2021/10/12 00:17:58;;;;;;;5.57;1.67;;;14.20;99.90;;;;;;5032426;28;20727;-74
2021/10/12 00:20:24;;;;;;;4.00;2.30;;;14.20;99.90;;;;;;5032211;28;21187;-74
2021/10/12 00:22:49;;;;;;;4.53;2.10;;;14.20;99.90;;;;;;5032286;28;20211;-74
2021/10/12 00:25:15;;;;;;;3.50;1.87;;;14.20;99.90;;;;;;5032473;28;20178;-73
2021/10/12 00:27:41;;;;;;;3.73;1.40;;;14.10;99.90;;;;;;5031937;28;20858;-73
2021/10/12 00:30:07;;;;;;;5.83;1.90;;;14.10;99.90;;;;;;5032217;28;20284;-74
2021/10/12 00:32:34;;;;;;;6.70;2.07;;;14.10;99.90;;;;;;5031689;28;20225;-73
2021/10/12 00:35:00;;;;;;;5.82;1.90;;;14.10;99.90;;;;;;5018725;28;20575;-74
2021/10/12 00:37:26;;;;;;;7.07;1.70;;;14.10;99.90;;;;;;5031776;28;20296;-74
2021/10/12 00:39:52;;;;;;;9.03;1.90;;;14.10;99.90;;;;;;5032235;28;20253;-74
2021/10/12 00:42:18;;;;;;;4.70;1.77;;;14.10;99.90;;;;;;5030254;28;20789;-74
2021/10/12 00:44:44;;;;;;;7.13;2.83;;;14.10;99.90;;;;;;5032050;28;20166;-74
2021/10/12 00:47:10;;;;;;;4.17;2.10;;;14.10;99.90;;;;;;5014342;28;20170;-74
2021/10/12 00:49:36;;;;;;;6.20;2.50;;;14.10;99.90;;;;;;5013864;28;20580;-74
2021/10/12 00:52:03;;;;;;;6.30;2.17;;;14.00;99.90;;;;;;5031727;28;20734;-74
2021/10/12 00:54:28;;;;;;;5.43;1.95;;;14.00;99.90;;;;;;5031476;28;20177;-75
2021/10/12 00:56:54;;;;;;;4.10;2.47;;;14.00;99.90;;;;;;5031810;28;20181;-74
2021/10/12 00:59:20;;;;;;;3.80;2.23;;;14.00;99.90;;;;;;5014005;28;20247;-75
2021/10/12 01:01:46;;;;;;;6.00;2.30;;;14.00;99.90;;;;;;5030963;28;20619;-75
2021/10/12 01:04:12;;;;;;;5.43;2.20;;;13.90;99.90;;;;;;5030433;28;20177;-75
2021/10/12 01:06:37;;;;;;;4.50;1.80;;;13.90;99.90;;;;;;5031646;28;20177;-74
2021/10/12 01:09:04;;;;;;;7.17;2.53;;;13.90;99.90;;;;;;5030501;28;20551;-75
2021/10/12 01:11:32;;;;;;;4.90;1.98;;;13.90;99.90;;;;;;5033751;28;20202;-74
2021/10/12 01:14:00;;;;;;;4.82;2.20;;;13.80;99.90;;;;;;5031576;28;20617;-75
2021/10/12 01:16:26;;;;;;;8.02;3.05;;;13.90;99.90;;;;;;5031344;28;20245;-75
2021/10/12 01:19:00;;;;;;;7.70;3.00;;;13.80;99.90;;;;;;5031597;28;20260;-75
2021/10/12 01:21:28;;;;;;;8.25;2.70;;;13.80;99.90;;;;;;5013313;28;20201;-74
2021/10/12 01:23:54;;;;;;;4.38;2.40;;;13.80;99.90;;;;;;5031504;28;20186;-74
2021/10/12 01:26:21;;;;;;;3.53;1.98;;;13.70;99.90;;;;;;5031085;28;20228;-74
2021/10/12 01:28:47;;;;;;;4.93;2.90;;;13.80;99.90;;;;;;5031647;28;20177;-74
2021/10/12 01:31:22;;;;;;;7.28;3.40;;;13.70;99.90;;;;;;5030767;28;20196;-74
2021/10/12 01:33:48;;;;;;;4.57;2.70;;;13.70;99.90;;;;;;5031257;28;20275;-74
2021/10/12 01:36:14;;;;;;;5.27;2.20;;;13.70;99.90;;;;;;5029987;28;20260;-74
2021/10/12 01:38:41;;;;;;;7.10;2.33;;;13.70;99.90;;;;;;5031151;28;20960;-74
2021/10/12 01:41:07;;;;;;;7.40;2.25;;;13.70;99.90;;;;;;5013231;28;20173;-74
2021/10/12 01:43:32;;;;;;;3.93;2.10;;;13.70;99.90;;;;;;5029645;28;20611;-74
2021/10/12 01:46:00;;;;;;;8.27;2.93;;;13.70;99.90;;;;;;5031289;28;20662;-74
2021/10/12 01:48:26;;;;;;;4.07;2.38;;;13.70;99.90;;;;;;5032822;28;20180;-74
2021/10/12 01:50:52;;;;;;;3.77;2.50;;;13.60;99.90;;;;;;5029935;28;20305;-74
2021/10/12 01:53:18;;;;;;;6.23;2.87;;;13.60;99.90;;;;;;5031106;28;20190;-74
2021/10/12 01:55:43;;;;;;;10.40;3.27;;;13.60;99.90;;;;;;5031158;28;20257;-75
2021/10/12 01:58:09;;;;;;;5.03;2.53;;;13.60;99.90;;;;;;5030974;28;20256;-75
2021/10/12 02:00:35;;;;;;;6.80;3.33;;;13.60;99.90;;;;;;5013527;28;20174;-75
2021/10/12 02:03:00;;;;;;;8.10;3.80;;;13.60;99.90;;;;;;5013095;28;20185;-75
2021/10/12 02:05:26;;;;;;;9.33;3.40;;;13.50;99.90;;;;;;5030729;28;20263;-74
2021/10/12 02:07:52;;;;;;;5.63;3.33;;;13.50;99.90;;;;;;5031314;28;20174;-75
2021/10/12 02:10:18;;;;;;;8.37;4.10;;;13.50;99.90;;;;;;5030832;28;20202;-74
2021/10/12 02:12:43;;;;;;;6.40;3.83;;;13.50;99.90;;;;;;5030920;28;20186;-75
2021/10/12 02:15:09;;;;;;;7.80;3.70;;;13.40;99.90;;;;;;5016755;28;20638;-75
2021/10/12 02:17:35;;;;;;;7.00;4.40;;;13.40;99.90;;;;;;5034881;28;20571;-75
2021/10/12 02:20:04;;;;;;;5.33;4.30;;;13.40;99.90;;;;;;5034292;28;20667;-74
2021/10/12 02:22:30;;;;;;;7.10;4.60;;;13.40;99.90;;;;;;5034068;28;20615;-74
2021/10/12 02:24:56;;;;;;;6.70;4.30;;;13.40;99.90;;;;;;5036972;28;20731;-75
2021/10/12 02:27:21;;;;;;;7.70;4.33;;;13.30;99.90;;;;;;5035240;28;20946;-75
2021/10/12 02:29:48;;;;;;;7.87;5.50;;;13.30;99.90;;;;;;5016598;28;20249;-74
2021/10/12 02:32:14;;;;;;;9.38;5.60;;;13.30;99.90;;;;;;5033658;28;20205;-74
2021/10/12 02:34:40;;;;;;;6.40;5.17;;;13.30;99.90;;;;;;5034423;28;20634;-75
2021/10/12 02:37:05;;;;;;;6.30;5.00;;;13.30;99.90;;;;;;5034041;28;20196;-75
2021/10/12 02:39:31;;;;;;;6.80;5.03;;;13.30;99.90;;;;;;5034300;28;20166;-76
2021/10/12 02:41:57;;;;;;;6.63;5.60;;;13.30;99.90;;;;;;5033569;28;20242;-76
2021/10/12 02:44:23;;;;;;;9.80;5.70;;;13.30;99.90;;;;;;5034177;28;20180;-75
2021/10/12 02:46:48;;;;;;;7.00;5.53;;;13.20;99.90;;;;;;5032737;28;20201;-75
2021/10/12 02:49:14;;;;;;;10.40;5.73;;;13.20;99.90;;;;;;5033979;28;20185;-75
2021/10/12 02:51:40;;;;;;;7.57;5.33;;;13.20;99.90;;;;;;5033393;28;20205;-75
2021/10/12 02:54:06;;;;;;;8.30;5.87;;;13.20;99.90;;;;;;5033716;28;20529;-75
2021/10/12 02:56:31;;;;;;;5.67;5.17;;;13.20;99.90;;;;;;5033950;28;20547;-75
2021/10/12 02:58:57;;;;;;;8.13;5.27;;;13.20;99.90;;;;;;5033688;28;20749;-75
2021/10/12 03:01:23;;;;;;;6.97;5.23;;;13.20;99.90;;;;;;5033663;28;20580;-75
2021/10/12 03:03:48;;;;;;;7.20;5.60;;;13.20;99.90;;;;;;5036397;28;20247;-74
2021/10/12 03:06:14;;;;;;;7.27;5.20;;;13.20;99.90;;;;;;5033768;28;20180;-74
2021/10/12 03:08:40;;;;;;;6.20;4.70;;;13.20;99.90;;;;;;5032402;28;20244;-74
2021/10/12 03:11:06;;;;;;;6.13;3.75;;;13.20;99.90;;;;;;5031980;28;20233;-74
2021/10/12 03:13:32;;;;;;;10.67;4.53;;;13.20;99.90;;;;;;5033725;28;20240;-74
2021/10/12 03:15:57;;;;;;;5.10;4.70;;;13.20;99.90;;;;;;5015763;28;20178;-73
2021/10/12 03:18:23;;;;;;;8.90;4.70;;;13.20;99.90;;;;;;5033672;28;20526;-74
2021/10/12 03:20:49;;;;;;;7.57;4.87;;;13.20;99.90;;;;;;5015177;28;20213;-74
2021/10/12 03:23:15;;;;;;;7.75;4.95;;;13.20;99.90;;;;;;5033358;28;20201;-74
2021/10/12 03:25:41;;;;;;;9.80;4.83;;;13.20;99.90;;;;;;5032998;28;20166;-73
2021/10/12 03:28:06;;;;;;;10.37;4.70;;;13.20;99.90;;;;;;5015847;28;20170;-74
2021/10/12 03:30:32;;;;;;;7.30;5.17;;;13.20;99.90;;;;;;5033097;28;20248;-73
2021/10/12 03:32:58;;;;;;;8.87;5.30;;;13.10;99.90;;;;;;5015487;28;20629;-74
2021/10/12 03:35:32;;;;;;;5.33;4.83;;;13.20;99.90;;;;;;5031929;28;20223;-74
2021/10/12 03:37:58;;;;;;;7.90;5.18;;;13.20;99.90;;;;;;5033471;28;20572;-74
2021/10/12 03:40:23;;;;;;;5.90;5.30;;;13.10;99.90;;;;;;5037684;28;20513;-74
2021/10/12 03:42:49;;;;;;;6.97;5.40;;;13.10;99.90;;;;;;5032678;28;20193;-74
2021/10/12 03:45:15;;;;;;;7.33;5.20;;;13.10;99.90;;;;;;5033080;28;20170;-74
2021/10/12 03:47:40;;;;;;;5.63;5.10;;;13.10;99.90;;;;;;5031615;28;20251;-73
2021/10/12 03:50:06;;;;;;;9.57;7.03;;;13.10;99.90;;;;;;5032636;28;20217;-73
2021/10/12 03:52:32;;;;;;;8.52;5.80;;;13.10;99.90;;;;;;5031903;28;20225;-74
2021/10/12 03:55:01;;;;;;;6.67;6.00;;;13.10;99.90;;;;;;5032951;28;20255;-73
2021/10/12 03:57:26;;;;;;;10.73;6.93;;;13.20;99.90;;;;;;5032581;28;20170;-74
2021/10/12 03:59:52;;;;;;;10.77;7.40;;;13.10;99.90;;;;;;5032751;28;20505;-73
2021/10/12 04:02:18;;;;;;;9.40;6.90;;;13.10;99.90;;;;;;5032324;28;20236;-73
2021/10/12 04:04:43;;;;;;;8.87;7.80;;;13.20;99.90;;;;;;5032658;28;20568;-73
2021/10/12 04:07:09;;;;;;;8.97;7.63;;;13.20;99.90;;;;;;5032347;28;20165;-73
2021/10/12 04:09:35;;;;;;;13.07;8.07;;;13.20;99.90;;;;;;5032655;28;20289;-74
2021/10/12 04:12:00;;;;;;;11.30;7.43;;;13.20;99.90;;;;;;5032202;28;20209;-73
2021/10/12 04:14:26;;;;;;;9.10;6.27;;;13.10;99.90;;;;;;5031269;28;20169;-73
2021/10/12 04:16:52;;;;;;;11.73;6.67;;;13.20;99.90;;;;;;5037082;28;20668;-73
2021/10/12 04:19:17;;;;;;;9.83;7.40;;;13.20;99.90;;;;;;5032556;28;20170;-74
2021/10/12 04:21:43;;;;;;;10.67;6.90;;;13.20;99.90;;;;;;5014289;28;20187;-73
2021/10/12 04:24:09;;;;;;;8.47;6.13;;;13.20;99.90;;;;;;5032237;28;20212;-74
2021/10/12 04:26:37;;;;;;;10.10;6.40;;;13.20;99.90;;;;;;5032397;28;20181;-74
2021/10/12 04:29:03;;;;;;;11.60;6.30;;;13.10;99.90;;;;;;5031951;28;20173;-74
2021/10/12 04:31:29;;;;;;;11.30;5.97;;;13.10;99.90;;;;;;5031957;28;20685;-74
2021/10/12 04:33:55;;;;;;;8.20;6.10;;;13.10;99.90;;;;;;5032062;28;20161;-74
2021/10/12 04:36:20;;;;;;;10.97;5.93;;;13.20;99.90;;;;;;5031617;28;20541;-74
2021/10/12 04:38:46;;;;;;;8.80;5.97;;;13.10;99.90;;;;;;5014303;28;20169;-74
2021/10/12 04:41:12;;;;;;;9.07;5.70;;;13.10;99.90;;;;;;5014156;28;20598;-74
2021/10/12 04:43:37;;;;;;;6.70;5.73;;;13.10;99.90;;;;;;5030559;28;20292;-74
2021/10/12 04:46:03;;;;;;;11.30;7.10;;;13.10;99.90;;;;;;5032159;28;20178;-75
2021/10/12 04:48:29;;;;;;;10.43;6.43;;;13.10;99.90;;;;;;5031236;28;20181;-75
2021/10/12 04:50:56;;;;;;;9.53;6.47;;;13.10;99.90;;;;;;5031727;28;20197;-75
2021/10/12 04:53:22;;;;;;;7.65;6.00;;;13.10;99.90;;;;;;5016792;28;20600;-76
2021/10/12 04:55:48;;;;;;;9.23;6.73;;;13.10;99.90;;;;;;5037241;28;20164;-74
2021/10/12 04:58:14;;;;;;;9.55;6.22;;;13.00;99.90;;;;;;5032186;28;20560;-74
2021/10/12 05:00:40;;;;;;;9.03;7.00;;;13.00;99.90;;;;;;5031638;28;20221;-74
2021/10/12 05:03:06;;;;;;;14.60;7.15;;;13.00;99.90;;;;;;5030608;28;20288;-74
2021/10/12 05:05:32;;;;;;;7.87;6.50;;;13.00;99.90;;;;;;5032127;28;20252;-75
2021/10/12 05:08:00;;;;;;;9.70;6.22;;;12.90;99.90;;;;;;5031855;28;20573;-75
2021/10/12 05:10:26;;;;;;;8.63;5.75;;;13.00;99.90;;;;;;5031493;28;20256;-75
2021/10/12 05:12:52;;;;;;;7.90;5.50;;;13.00;99.90;;;;;;5031809;28;20186;-75
2021/10/12 05:15:26;;;;;;;8.57;5.10;;;13.00;99.90;;;;;;5032153;28;20193;-75
2021/10/12 05:17:52;;;;;;;11.40;5.20;;;13.00;99.90;;;;;;4998033;28;20642;-75
2021/10/12 05:20:18;;;;;;;7.82;5.18;;;13.00;99.90;;;;;;5031468;28;20177;-73
2021/10/12 05:22:46;;;;;;;10.65;5.57;;;13.00;99.90;;;;;;5013794;28;20248;-73
2021/10/12 05:25:12;;;;;;;10.75;5.50;;;13.00;99.90;;;;;;5031417;28;20184;-73
2021/10/12 05:27:38;;;;;;;10.73;5.07;;;13.00;99.90;;;;;;5030248;28;20174;-73
2021/10/12 05:30:06;;;;;;;7.40;4.80;;;13.10;99.90;;;;;;5032714;28;20611;-75
2021/10/12 05:32:33;;;;;;;9.40;4.90;;;13.10;99.90;;;;;;5016632;28;20198;-73
2021/10/12 05:34:59;;;;;;;10.48;4.88;;;13.10;99.90;;;;;;5031627;28;20173;-74
2021/10/12 05:37:25;;;;;;;8.13;4.70;;;13.10;99.90;;;;;;5030224;28;20166;-74
2021/10/12 05:39:51;;;;;;;9.10;5.80;;;13.10;99.90;;;;;;5031345;28;20664;-74
2021/10/12 05:42:16;;;;;;;13.03;5.93;;;13.10;99.90;;;;;;5030812;28;20232;-74
2021/10/12 05:44:42;;;;;;;7.30;4.97;;;13.20;99.90;;;;;;5031266;28;20166;-74
2021/10/12 05:47:08;;;;;;;7.93;4.80;;;13.20;99.90;;;;;;5031861;28;20189;-74
2021/10/12 05:49:36;;;;;;;8.05;5.45;;;13.20;99.90;;;;;;5034007;28;20576;-75
2021/10/12 05:52:03;;;;;;;6.65;4.50;;;13.20;99.90;;;;;;5034324;28;20205;-75
2021/10/12 05:54:32;;;;;;;8.48;4.72;;;13.20;99.90;;;;;;5035136;28;20198;-74
2021/10/12 05:57:05;;;;;;;9.95;4.20;;;13.20;99.90;;;;;;5034869;28;20174;-73
2021/10/12 05:59:34;;;;;;;13.02;5.10;;;13.20;99.90;;;;;;5034987;28;20188;-73
2021/10/12 06:02:00;;;;;;;7.20;4.68;;;13.20;99.90;;;;;;5032984;28;20216;-73
2021/10/12 06:04:26;;;;;;;8.15;4.60;;;13.20;99.90;;;;;;5033835;28;20561;-73
2021/10/12 06:06:55;;;;;;;13.23;5.20;;;13.20;99.90;;;;;;5034893;28;20216;-74
2021/10/12 06:09:21;;;;;;;9.07;4.82;;;13.30;99.90;;;;;;5039552;28;20674;-73
2021/10/12 06:11:46;;;;;;;8.40;4.60;;;13.30;99.90;;;;;;5034413;28;20280;-74
2021/10/12 06:14:12;;;;;;;9.17;4.97;;;13.30;99.90;;;;;;5034563;28;20159;-74
2021/10/12 06:16:38;;;;;;;9.53;4.40;;;13.30;99.90;;;;;;5034689;28;20605;-74
2021/10/12 06:19:03;;;;;;;9.20;4.30;;;13.30;99.90;;;;;;5034286;28;20181;-74
2021/10/12 06:21:30;;;;;;;7.20;4.60;;;13.30;99.90;;;;;;5034321;28;20247;-74
2021/10/12 06:23:56;;;;;;;7.68;4.03;;;13.30;99.90;;;;;;5034852;28;20184;-77
2021/10/12 06:26:22;;;;;;;7.57;4.07;;;13.40;99.90;;;;;;5034762;28;20165;-77
2021/10/12 06:28:48;;;;;;;9.87;4.07;;;13.40;99.90;;;;;;5034500;28;20213;-76
2021/10/12 06:31:14;;;;;;;10.73;5.13;;;13.40;99.90;;;;;;5034072;28;20619;-77
2021/10/12 06:33:40;;;;;;;13.80;4.93;;;13.40;99.90;;;;;;5016532;28;20216;-76
2021/10/12 06:36:06;;;;;;;10.93;4.55;;;13.40;99.90;;;;;;5032938;28;20169;-76
2021/10/12 06:38:32;;;;;;;7.30;4.00;;;13.40;99.90;;;;;;5034024;28;20273;-77
2021/10/12 06:40:58;;;;;;;7.80;4.10;;;13.40;99.90;;;;;;5033999;28;20256;-77
2021/10/12 06:43:23;;;;;;;11.50;4.60;;;13.40;99.90;;;;;;5016773;28;21190;-76
2021/10/12 06:45:49;;;;;;;8.20;4.00;;;13.40;99.90;;;;;;5037529;28;20693;-76
2021/10/12 06:48:15;;;;;;;8.20;3.80;;;13.40;99.90;;;;;;5032791;28;20170;-76
2021/10/12 06:50:40;;;;;;;6.83;4.60;;;13.40;99.90;;;;;;5033433;28;20205;-77
2021/10/12 06:53:06;;;;;;;7.27;4.60;;;13.50;99.90;;;;;;5033785;28;20693;-77
2021/10/12 06:55:32;;;;;;;9.75;4.35;;;13.50;99.90;;;;;;5032452;28;20170;-77
2021/10/12 06:57:58;;;;;;;7.90;3.57;;;13.50;99.90;;;;;;4999828;28;20180;-76
2021/10/12 07:00:24;;;;;;;8.80;3.57;;;13.50;99.90;;;;;;5032976;28;20591;-76
2021/10/12 07:02:50;;;;;;;7.07;3.63;;;13.60;99.90;;;;;;5033300;28;20615;-76
2021/10/12 07:05:17;;;;;;;6.47;3.23;;;13.60;99.90;;;;;;5032407;28;20177;-77
2021/10/12 07:07:43;;;;;;;6.15;3.15;;;13.60;99.90;;;;;;4999597;28;20744;-76
2021/10/12 07:10:10;;;;;;;9.40;3.53;;;13.60;99.90;;;;;;5033290;28;20681;-77
2021/10/12 07:12:36;;;;;;;7.50;3.38;;;13.60;99.90;;;;;;5033189;28;20193;-77
2021/10/12 07:15:03;;;;;;;8.90;4.40;;;13.60;99.90;;;;;;5033368;28;20169;-76
2021/10/12 07:17:29;;;;;;;8.02;3.90;;;13.70;99.90;;;;;;5033636;28;20579;-77
2021/10/12 07:19:55;;;;;;;6.00;3.83;;;13.70;99.90;;;;;;5034154;28;20161;-77
2021/10/12 07:22:23;;;;;;;5.80;3.93;;;13.70;99.90;;;;;;5036953;28;20216;-76
2021/10/12 07:24:49;;;;;;;10.00;3.83;;;13.70;99.90;;;;;;5033598;28;20244;-77
2021/10/12 07:27:15;;;;;;;7.32;3.30;;;13.70;99.90;;;;;;5033145;28;20219;-77
2021/10/12 07:29:41;;;;;;;6.40;2.60;;;13.70;99.90;;;;;;5015907;28;20173;-77
2021/10/12 07:32:10;;;;;;;7.23;3.50;;;13.70;99.90;;;;;;5032712;28;20724;-76
2021/10/12 07:34:35;;;;;;;8.18;3.60;;;13.70;99.90;;;;;;5033432;28;20564;-76
2021/10/12 07:37:01;;;;;;;6.77;3.40;;;13.70;99.90;;;;;;5031707;28;20180;-77
2021/10/12 07:39:27;;;;;;;8.83;3.50;;;13.70;99.90;;;;;;5033275;28;20614;-76
2021/10/12 07:41:52;;;;;;;6.20;3.97;;;13.70;99.90;;;;;;5014901;28;20202;-77
2021/10/12 07:44:18;;;;;;;6.43;4.00;;;13.70;99.90;;;;;;5033158;28;20237;-77
2021/10/12 07:46:44;;;;;;;7.03;4.00;;;13.60;99.90;;;;;;5032837;28;20253;-77
2021/10/12 07:49:10;;;;;;;7.90;4.20;;;13.70;99.90;;;;;;5033130;28;20604;-75
2021/10/12 07:51:35;;;;;;;6.90;3.77;;;13.60;99.90;;;;;;5032263;28;20561;-76
2021/10/12 07:54:02;;;;;;;5.90;3.50;;;13.70;99.90;;;;;;5033095;28;20204;-76
2021/10/12 07:56:37;;;;;;;10.73;4.10;;;13.60;99.90;;;;;;5032870;28;20176;-76
2021/10/12 07:59:04;;;;;;;7.20;3.60;;;13.70;99.90;;;;;;5035635;28;20227;-76
2021/10/12 08:01:31;;;;;;;6.72;3.30;;;13.70;99.90;;;;;;5037599;28;20789;-77
2021/10/12 08:03:57;;;;;;;4.80;3.10;;;13.70;99.90;;;;;;5032554;28;20802;-76
2021/10/12 08:06:23;;;;;;;6.20;3.80;;;13.70;99.90;;;;;;5014917;28;20245;-76
2021/10/12 08:08:49;;;;;;;7.87;3.80;;;13.70;99.90;;;;;;5032308;28;20162;-76
2021/10/12 08:11:17;;;;;;;7.73;3.60;;;13.70;99.90;;;;;;5031263;28;20284;-77
2021/10/12 08:13:43;;;;;;;6.13;4.13;;;13.70;99.90;;;;;;5031990;28;20212;-77
2021/10/12 08:16:09;;;;;;;6.90;3.27;;;13.70;99.90;;;;;;5032383;28;20170;-77
2021/10/12 08:18:36;;;;;;;9.25;3.92;;;13.70;99.90;;;;;;5032074;28;20575;-77
2021/10/12 08:21:02;;;;;;;7.03;3.75;;;13.70;99.90;;;;;;5031966;28;20226;-77
2021/10/12 08:23:28;;;;;;;14.30;6.23;;;13.70;99.90;;;;;;5030594;28;20211;-77
2021/10/12 08:25:54;;;;;;;5.97;3.87;;;13.80;99.90;;;;;;5032238;28;20560;-77
2021/10/12 08:28:19;;;;;;;11.05;6.85;;;13.80;99.90;;;;;;5030947;28;20578;-78
2021/10/12 08:30:45;;;;;;;17.77;9.90;;;13.80;99.90;;;;;;5031042;28;20281;-76
2021/10/12 08:33:11;;;;;;;12.50;7.30;;;13.80;99.90;;;;;;5031176;28;20178;-77
2021/10/12 08:35:37;;;;;;;15.13;6.53;;;13.80;99.90;;;;;;5033342;28;20194;-77
2021/10/12 08:38:02;;;;;;;9.50;6.13;;;13.80;99.90;;;;;;5036945;28;20169;-77
2021/10/12 08:40:31;;;;;;;9.87;7.00;;;13.90;99.90;;;;;;4997886;28;20273;-76
2021/10/12 08:42:58;;;;;;;10.15;5.22;;;13.90;99.90;;;;;;5031495;28;20691;-77
2021/10/12 08:45:24;;;;;;;11.55;5.45;;;13.90;99.90;;;;;;5031768;28;20178;-77
2021/10/12 08:47:51;;;;;;;7.53;5.07;;;13.90;99.90;;;;;;5030823;28;20174;-77
2021/10/12 08:50:22;;;;;;;8.63;5.10;;;13.90;99.90;;;;;;5031400;28;20685;-76
2021/10/12 08:52:48;;;;;;;6.75;4.80;;;13.90;99.90;;;;;;5031604;28;20248;-77
2021/10/12 08:55:15;;;;;;;5.95;4.82;;;13.90;99.90;;;;;;5031698;28;20161;-77
2021/10/12 08:57:43;;;;;;;9.85;6.38;;;13.90;99.90;;;;;;5032081;28;20758;-77
2021/10/12 09:00:18;;;;;;;8.50;5.65;;;13.90;99.90;;;;;;5031682;28;20650;-77
2021/10/12 09:03:17;;;;;;;8.13;5.93;;;13.90;99.90;;;;;;5031531;28;20193;-77
2021/10/12 09:06:00;;;;;;;6.97;6.30;;;13.90;99.90;;;;;;5031571;28;20178;-76
2021/10/12 09:08:35;;;;;;;7.45;5.55;;;13.90;99.90;;;;;;5031950;28;20609;-77
2021/10/12 09:11:04;;;;;;;5.40;4.90;;;13.90;99.90;;;;;;5031655;28;20193;-77
2021/10/12 09:13:46;;;;;;;5.50;4.65;;;14.00;99.90;;;;;;5036965;28;20596;-77
2021/10/12 09:16:17;;;;;;;6.13;4.57;;;13.90;99.90;;;;;;5031541;28;20176;-77
2021/10/12 09:18:46;;;;;;;4.75;3.70;;;13.90;99.90;;;;;;5031713;28;20564;-77
2021/10/12 09:21:34;;;;;;;5.22;4.45;;;14.00;99.90;;;;;;5029970;28;20260;-77
2021/10/12 09:24:20;;;;;;;4.72;4.20;;;13.90;99.90;;;;;;5031828;28;20178;-77
2021/10/12 09:27:00;;;;;;;5.07;4.10;;;14.00;99.90;;;;;;5031302;28;20540;-77
2021/10/12 09:29:32;;;;;;;7.25;4.30;;;14.00;99.90;;;;;;5031675;28;20174;-77
2021/10/12 09:31:59;;;;;;;6.68;4.60;;;14.00;99.90;;;;;;5030951;28;20205;-77
2021/10/12 09:34:31;;;;;;;7.22;4.28;;;14.00;99.90;;;;;;5031472;28;20172;-78
2021/10/12 09:36:58;;;;;;;4.30;3.90;;;14.10;99.90;;;;;;5031274;28;20166;-77
2021/10/12 09:39:46;;;;;;;6.90;3.95;;;14.10;99.90;;;;;;5014006;28;20582;-77
2021/10/12 09:42:17;;;;;;;5.30;4.10;;;14.10;99.90;;;;;;5030915;28;20288;-77
2021/10/12 09:44:57;;;;;;;4.35;3.40;;;14.10;99.90;;;;;;5013732;28;20703;-77
2021/10/12 09:47:24;;;;;;;4.18;3.50;;;14.20;99.90;;;;;;5031400;28;20201;-77
2021/10/12 09:50:06;;;;;;;4.80;3.85;;;14.20;99.90;;;;;;5032087;28;20576;-77
2021/10/12 09:52:36;;;;;;;6.72;3.83;;;14.20;99.90;;;;;;5032898;28;20255;-77
2021/10/12 09:55:02;;;;;;;6.68;4.60;;;14.20;99.90;;;;;;5032221;28;20169;-77
2021/10/12 09:57:30;;;;;;;4.70;4.30;;;14.30;99.90;;;;;;5034782;28;20197;-78
2021/10/12 09:59:56;;;;;;;5.55;4.00;;;14.30;99.90;;;;;;5029910;28;20584;-77
2021/10/12 10:02:24;;;;;;;6.65;4.22;;;14.30;99.90;;;;;;5030675;28;20723;-77
2021/10/12 10:04:52;;;;;;;6.90;5.03;;;14.40;99.90;;;;;;5031215;28;20170;-77
2021/10/12 10:07:27;;;;;;;10.85;4.75;;;14.40;99.90;;;;;;5029675;28;20162;-77
2021/10/12 10:10:07;;;;;;;4.80;3.83;;;14.40;99.90;;;;;;5031128;28;20177;-77
2021/10/12 10:12:33;;;;;;;5.88;4.95;;;14.40;99.90;;;;;;5030669;28;20272;-77
2021/10/12 10:15:00;;;;;;;6.90;6.20;;;14.40;99.90;;;;;;5030096;28;20170;-77
2021/10/12 10:17:27;;;;;;;9.60;6.30;;;14.40;99.90;;;;;;5013493;28;20518;-77
2021/10/12 10:19:55;;;;;;;7.90;5.27;;;14.30;99.90;;;;;;5030993;28;20568;-77
2021/10/12 10:22:44;;;;;;;6.50;4.80;;;14.30;99.90;;;;;;5030555;28;20965;-77
2021/10/12 10:25:40;;;;;;;7.90;4.30;;;14.30;99.90;;;;;;5029992;28;20563;-77
2021/10/12 10:28:22;;;;;;;7.97;5.23;;;14.30;99.90;;;;;;5031246;28;20864;-76
2021/10/12 10:31:02;;;;;;;5.72;5.10;;;14.30;99.90;;;;;;5030967;28;20620;-76
2021/10/12 10:33:35;;;;;;;8.23;5.43;;;14.30;99.90;;;;;;5031454;28;20670;-76
2021/10/12 10:36:10;;;;;;;7.07;6.20;;;14.30;99.90;;;;;;5034490;28;20166;-76
2021/10/12 10:38:45;;;;;;;8.23;7.47;;;14.30;99.90;;;;;;5034157;28;20564;-77
2021/10/12 10:41:11;;;;;;;11.90;8.15;;;14.30;99.90;;;;;;5032766;28;20169;-77
2021/10/12 10:43:49;;;;;;;10.20;6.00;;;14.30;99.90;;;;;;5033964;28;20196;-76
2021/10/12 10:46:36;;;;;;;10.00;7.50;;;14.40;99.90;;;;;;5034158;28;20597;-77
2021/10/12 10:49:13;;;;;;;8.70;7.73;;;14.60;99.90;;;;;;5034247;28;20610;-76
2021/10/12 10:51:50;;;;;;;7.10;6.40;;;14.80;99.90;;;;;;5033877;28;20651;-76
2021/10/12 10:54:39;;;;;;;7.63;6.43;;;15.00;99.90;;;;;;5000526;28;21127;-76
2021/10/12 10:57:21;;;;;;;6.60;5.87;;;15.20;99.90;;;;;;5033142;28;21207;-77
2021/10/12 11:00:08;;;;;;;5.37;4.73;;;15.30;99.90;;;;;;5034036;28;20560;-77
2021/10/12 11:02:33;;;;;;;6.27;5.67;;;15.40;99.90;;;;;;5033896;28;21193;-77
2021/10/12 11:05:00;;;;;;;5.43;5.00;;;15.50;99.90;;;;;;5036792;28;20568;-77
2021/10/12 11:07:28;;;;;;;6.30;5.70;;;15.60;99.90;;;;;;5016614;28;20170;-77
2021/10/12 11:09:56;;;;;;;8.90;5.37;;;15.70;99.90;;;;;;5033675;28;20726;-77
2021/10/12 11:12:29;;;;;;;5.43;4.90;;;15.80;99.90;;;;;;5016202;28;21010;-77
2021/10/12 11:15:07;;;;;;;5.83;4.97;;;16.00;99.90;;;;;;5033734;28;20573;-77
2021/10/12 11:17:33;;;;;;;5.43;4.50;;;16.10;99.90;;;;;;5033998;28;20572;-77
2021/10/12 11:20:01;;;;;;;5.87;5.37;;;16.20;99.90;;;;;;5033743;28;21018;-77
2021/10/12 11:22:29;;;;;;;8.37;6.57;;;16.20;99.90;;;;;;5033156;28;20631;-77
2021/10/12 11:24:55;;;;;;;6.00;5.50;;;16.30;99.90;;;;;;5032446;28;20594;-77
2021/10/12 11:27:21;;;;;;;6.23;5.63;;;16.30;99.90;;;;;;5033487;28;20592;-77
2021/10/12 11:30:07;;;;;;;6.33;5.33;;;16.20;99.90;;;;;;5033687;28;20580;-77
2021/10/12 11:32:33;;;;;;;8.63;5.20;;;16.20;99.90;;;;;;5032759;28;20612;-76
2021/10/12 11:35:11;;;;;;;10.10;5.43;;;16.20;99.90;;;;;;5033336;28;20556;-76
2021/10/12 11:37:54;;;;;;;6.63;5.37;;;16.20;99.90;;;;;;5033137;28;20522;-76
2021/10/12 11:40:22;;;;;;;8.00;7.20;;;16.20;99.90;;;;;;5033599;28;20568;-76
2021/10/12 11:42:48;;;;;;;8.37;4.90;;;16.10;99.90;;;;;;5037076;28;20983;-76
2021/10/12 11:45:14;;;;;;;6.20;4.87;;;16.00;99.90;;;;;;5033282;28;20565;-76
2021/10/12 11:47:40;;;;;;;5.00;4.30;;;16.00;99.90;;;;;;4998778;28;20187;-76
2021/10/12 11:50:14;;;;;;;6.00;5.00;;;15.90;99.90;;;;;;5033152;28;20256;-76
2021/10/12 11:52:41;;;;;;;7.43;4.50;;;15.90;99.90;;;;;;5032301;28;20588;-77
2021/10/12 11:55:09;;;;;;;6.77;5.87;;;15.80;99.90;;;;;;5033066;28;20572;-77
2021/10/12 11:57:35;;;;;;;9.63;6.33;;;15.80;99.90;;;;;;5032585;28;20659;-77
2021/10/12 12:00:02;;;;;;;8.90;6.87;;;15.80;99.90;;;;;;5032946;28;20619;-76
2021/10/12 12:02:37;;;;;;;7.20;5.77;;;15.80;99.90;;;;;;5032146;28;20600;-76
2021/10/12 12:05:03;;;;;;;11.43;6.50;;;15.90;99.90;;;;;;5032783;28;21197;-76
2021/10/12 12:07:32;;;;;;;8.60;6.50;;;15.90;99.90;;;;;;5032555;28;20166;-77
2021/10/12 12:10:00;;;;;;;7.17;6.30;;;15.90;99.90;;;;;;5032705;28;21150;-77
2021/10/12 12:12:27;;;;;;;11.20;6.80;;;15.90;99.90;;;;;;5031917;28;20600;-77
2021/10/12 12:16:09;;;;;;;9.00;8.00;;;15.90;99.90;;;;;;5015984;28;20576;-77
2021/10/12 12:18:39;;;;;;;6.93;6.23;;;16.00;99.90;;;;;;4993378;28;20594;-77
2021/10/12 12:21:06;;;;;;;5.77;5.27;;;16.00;99.90;;;;;;5032144;28;20650;-77
2021/10/12 12:23:33;;;;;;;6.90;6.30;;;16.00;99.90;;;;;;5032120;28;20612;-77
2021/10/12 12:26:00;;;;;;;9.20;7.87;;;16.10;99.90;;;;;;5032882;28;20208;-78
2021/10/12 12:28:26;;;;;;;6.90;6.30;;;16.00;99.90;;;;;;5032267;28;20568;-76
2021/10/12 12:30:52;;;;;;;7.50;5.73;;;16.10;99.90;;;;;;5031804;28;20626;-77
2021/10/12 12:33:18;;;;;;;7.83;6.83;;;16.10;99.90;;;;;;5014344;28;20237;-78
2021/10/12 12:35:45;;;;;;;11.33;8.97;;;16.10;99.90;;;;;;5030835;28;21040;-78
2021/10/12 12:38:21;;;;;;;8.87;7.47;;;16.10;99.90;;;;;;5031982;28;20557;-78
2021/10/12 12:40:47;;;;;;;5.20;4.70;;;16.10;99.90;;;;;;5031895;28;21372;-78
2021/10/12 12:43:24;;;;;;;5.37;4.13;;;16.10;99.90;;;;;;5031986;28;20628;-78
2021/10/12 12:46:16;;;;;;;5.37;4.10;;;16.10;99.90;;;;;;5031985;28;20681;-78
2021/10/12 12:48:45;;;;;;;7.30;4.67;;;16.00;99.90;;;;;;5031868;28;21154;-77
2021/10/12 12:51:13;;;;;;;4.70;4.30;;;16.10;99.90;;;;;;5031633;28;20643;-78